createdAt,value
2022-09-23T00:00:21.581Z,10.20
2022-09-23T00:07:22.198Z,10.10
2022-09-23T00:14:23.275Z,10.10
2022-09-23T00:21:25.130Z,10.00
2022-09-23T00:28:25.562Z,9.90
2022-09-23T00:35:26.849Z,9.90
2022-09-23T00:42:27.426Z,9.80
2022-09-23T00:49:30.353Z,9.80
2022-09-23T00:56:33.254Z,9.70
2022-09-23T01:03:34.238Z,9.70
2022-09-23T01:11:06.282Z,9.60
2022-09-23T01:18:31.748Z,9.60
2022-09-23T01:25:52.073Z,9.50
2022-09-23T01:32:55.912Z,9.50
2022-09-23T01:40:14.603Z,9.40
2022-09-23T01:47:33.158Z,9.30
2022-09-23T01:54:46.190Z,9.30
2022-09-23T02:02:03.056Z,9.20
2022-09-23T02:09:11.978Z,9.20
2022-09-23T02:16:24.734Z,9.20
2022-09-23T02:23:35.168Z,9.20
2022-09-23T02:30:51.997Z,9.10
2022-09-23T02:37:58.915Z,9.10
2022-09-23T02:44:59.829Z,9.10
2022-09-23T02:52:05.586Z,9.00
2022-09-23T02:59:06.082Z,9.00
2022-09-23T03:06:31.210Z,9.00
2022-09-23T03:13:39.917Z,8.90
2022-09-23T03:20:51.177Z,8.90
2022-09-23T03:27:58.956Z,8.90
2022-09-23T03:35:01.695Z,8.80
2022-09-23T03:42:17.170Z,8.80
2022-09-23T03:49:19.716Z,8.70
2022-09-23T03:56:20.866Z,8.60
2022-09-23T04:03:22.849Z,8.60
2022-09-23T04:10:23.512Z,8.50
2022-09-23T04:17:24.894Z,8.50
2022-09-23T04:24:25.916Z,8.50
2022-09-23T04:31:26.988Z,8.50
2022-09-23T04:38:28.177Z,8.40
2022-09-23T04:45:30.645Z,8.30
2022-09-23T04:52:33.234Z,8.40
2022-09-23T04:59:34.758Z,8.30
2022-09-23T05:06:36.536Z,8.40
2022-09-23T05:13:37.189Z,8.30
2022-09-23T05:20:38.620Z,8.30
2022-09-23T05:27:40.190Z,8.30
2022-09-23T05:34:41.246Z,8.30
2022-09-23T05:41:43.805Z,8.30
2022-09-23T05:48:49.463Z,8.30
2022-09-23T05:55:50.281Z,8.30
2022-09-23T06:02:54.097Z,8.30
2022-09-23T06:09:54.826Z,8.30
2022-09-23T06:16:58.252Z,8.40
2022-09-23T06:24:02.982Z,8.40
2022-09-23T06:31:13.357Z,8.50
2022-09-23T06:38:14.418Z,8.60
2022-09-23T06:45:16.154Z,8.70
2022-09-23T06:52:16.975Z,8.90
2022-09-23T06:59:18.294Z,9.10
2022-09-23T07:06:19.226Z,9.30
2022-09-23T07:13:20.657Z,9.60
2022-09-23T07:20:21.709Z,9.90
2022-09-23T07:27:27.095Z,10.20
2022-09-23T07:34:27.842Z,10.70
2022-09-23T07:41:30.884Z,11.20
2022-09-23T07:48:34.365Z,11.70
2022-09-23T07:55:35.309Z,12.00
2022-09-23T08:02:37.800Z,12.30
2022-09-23T08:09:41.552Z,12.50
2022-09-23T08:16:42.776Z,12.80
2022-09-23T08:23:43.472Z,12.90
2022-09-23T08:30:47.990Z,13.10
2022-09-23T08:37:49.166Z,13.30
2022-09-23T08:44:55.161Z,13.40
2022-09-23T08:51:58.471Z,13.70
2022-09-23T08:59:35.686Z,13.90
2022-09-23T09:06:53.185Z,14.10
2022-09-23T09:14:05.573Z,14.40
2022-09-23T09:21:13.233Z,14.60
2022-09-23T09:28:31.131Z,14.90
2022-09-23T09:35:40.605Z,15.10
2022-09-23T09:42:43.453Z,15.30
2022-09-23T09:50:10.653Z,15.50
2022-09-23T09:57:33.529Z,15.70
2022-09-23T10:04:40.027Z,15.90
2022-09-23T10:11:41.582Z,16.10
2022-09-23T10:18:50.137Z,16.30
2022-09-23T10:26:00.130Z,16.60
2022-09-23T10:33:01.174Z,16.70
2022-09-23T10:40:45.461Z,16.90
2022-09-23T10:48:10.078Z,17.10
2022-09-23T10:55:29.312Z,17.40
2022-09-23T11:03:06.816Z,17.60
2022-09-23T11:10:45.037Z,17.80
2022-09-23T11:18:06.595Z,18.00
2022-09-23T11:25:28.075Z,18.20
2022-09-23T11:40:28.754Z,18.30
2022-09-23T11:47:39.901Z,18.30
2022-09-23T11:54:45.908Z,18.40
2022-09-23T12:01:49.912Z,18.40
2022-09-23T12:08:59.714Z,18.50
2022-09-23T12:16:32.437Z,18.60
2022-09-23T12:23:53.208Z,18.80
2022-09-23T12:30:57.082Z,19.00
2022-09-23T12:38:01.106Z,19.30
2022-09-23T12:45:37.785Z,19.50
2022-09-23T12:52:38.552Z,19.70
2022-09-23T12:59:51.972Z,19.70
2022-09-23T13:06:58.706Z,19.90
2022-09-23T13:14:03.766Z,20.00
2022-09-23T13:21:17.745Z,20.20
2022-09-23T13:28:34.188Z,20.40
2022-09-23T13:35:36.895Z,20.40
2022-09-23T13:42:40.792Z,20.30
2022-09-23T13:49:42.115Z,20.00
2022-09-23T13:56:49.329Z,19.90
2022-09-23T14:03:51.519Z,19.80
2022-09-23T14:10:53.239Z,19.60
2022-09-23T14:18:04.721Z,19.40
2022-09-23T14:25:12.387Z,19.20
2022-09-23T14:32:17.210Z,19.10
2022-09-23T14:39:18.744Z,18.90
2022-09-23T14:46:21.581Z,18.90
2022-09-23T14:53:24.726Z,18.80
2022-09-23T15:00:25.882Z,18.70
2022-09-23T15:07:28.063Z,18.60
2022-09-23T15:14:38.147Z,18.50
2022-09-23T15:21:44.246Z,18.40
2022-09-23T15:28:46.044Z,18.30
2022-09-23T15:35:48.577Z,18.30
2022-09-23T15:42:53.045Z,18.30
2022-09-23T15:49:54.563Z,18.30
2022-09-23T15:56:56.454Z,18.20
2022-09-23T16:03:57.630Z,18.20
2022-09-23T16:10:59.036Z,18.10
2022-09-23T16:18:01.018Z,18.10
2022-09-23T16:25:06.324Z,18.00
2022-09-23T16:32:07.667Z,18.00
2022-09-23T16:39:11.230Z,18.00
2022-09-23T16:46:15.507Z,17.80
2022-09-23T16:53:17.802Z,17.70
2022-09-23T17:00:37.367Z,17.70
2022-09-23T17:07:38.562Z,17.60
2022-09-23T17:14:39.320Z,17.50
2022-09-23T17:21:40.833Z,17.40
2022-09-23T17:28:41.673Z,17.30
2022-09-23T17:35:42.715Z,17.20
2022-09-23T17:42:44.545Z,17.00
2022-09-23T17:49:46.829Z,16.90
2022-09-23T17:56:48.153Z,16.80
2022-09-23T18:03:53.338Z,16.60
2022-09-23T18:10:54.350Z,16.50
2022-09-23T18:17:54.813Z,16.30
2022-09-23T18:24:55.359Z,16.20
2022-09-23T18:31:56.637Z,16.10
2022-09-23T18:38:57.384Z,15.90
2022-09-23T18:46:03.527Z,15.90
2022-09-23T18:53:04.659Z,15.80
2022-09-23T19:00:06.082Z,15.60
2022-09-23T19:07:06.197Z,15.50
2022-09-23T19:14:11.000Z,15.40
2022-09-23T19:21:14.329Z,15.30
2022-09-23T19:28:14.897Z,15.20
2022-09-23T19:35:15.952Z,15.10
2022-09-23T19:42:16.932Z,15.10
2022-09-23T19:49:18.370Z,15.00
2022-09-23T19:56:19.773Z,14.90
2022-09-23T20:03:20.278Z,14.80
2022-09-23T20:10:21.982Z,14.70
2022-09-23T20:17:22.287Z,14.50
2022-09-23T20:24:23.059Z,14.50
2022-09-23T20:31:24.302Z,14.50
2022-09-23T20:38:24.969Z,14.40
2022-09-23T20:45:25.893Z,14.40
2022-09-23T20:52:26.372Z,14.30
2022-09-23T20:59:27.445Z,14.30
2022-09-23T21:06:28.289Z,14.20
2022-09-23T21:13:30.543Z,14.10
2022-09-23T21:20:31.593Z,14.10
2022-09-23T21:27:32.406Z,14.10
2022-09-23T21:34:33.180Z,14.10
2022-09-23T21:41:35.175Z,14.10
2022-09-23T21:48:39.207Z,14.00
2022-09-23T21:55:39.585Z,14.00
2022-09-23T22:02:40.030Z,13.90
2022-09-23T22:09:41.030Z,13.90
2022-09-23T22:16:42.702Z,13.80
2022-09-23T22:23:43.440Z,13.80
2022-09-23T22:31:03.117Z,13.70
2022-09-23T22:38:04.545Z,13.70
2022-09-23T22:45:06.315Z,13.60
2022-09-23T22:52:08.617Z,13.60
2022-09-23T22:59:11.357Z,13.50
2022-09-23T23:06:11.911Z,13.50
2022-09-23T23:13:12.584Z,13.40
2022-09-23T23:20:12.970Z,13.40
2022-09-23T23:27:13.413Z,13.40
2022-09-23T23:34:16.235Z,13.40
2022-09-23T23:41:19.449Z,13.40
2022-09-23T23:48:20.684Z,13.30
2022-09-23T23:55:21.321Z,13.30
